Omidiyeh, Iran
Current Conditions -  °F | °C
As of 11:00 PM on Tuesday 25 Nov 2014 (Local Time) from OIAG Reporting Station
Broken Clouds Broken Clouds  
Wind Chill: 64°   Ceiling: 4000
Heat Index: 64°   Visibility: 6mi
Dew Point: 61°   Wind: 5mph
Humidity: 88%   Direction: 150°SSE
Pressure: 29.94"   Gusts: NA
Location:  30.75°N, 49.71°E
Report Text: OIAG 252000Z 15004KT 9999 BKN040TCU 18/16 Q1014
Loading
Personal Weather Stations






























Interactive Weather Map New forecast layout! Learn more

10-Day Weather Forecast

Advertisements
Track Severe Weather on mobile